sensor_id;sensor_type;location;lat;lon;timestamp;temperature;humidity
6581;DHT22;3324;50.796;7.228;2023-03-01T00:01:19;1.50;99.90
6581;DHT22;3324;50.796;7.228;2023-03-01T00:03:45;1.40;99.90
6581;DHT22;3324;50.796;7.228;2023-03-01T00:06:11;1.40;99.90
6581;DHT22;3324;50.796;7.228;2023-03-01T00:08:37;1.40;99.90
6581;DHT22;3324;50.796;7.228;2023-03-01T00:11:18;1.40;99.90
6581;DHT22;3324;50.796;7.228;2023-03-01T00:13:46;1.40;99.90
6581;DHT22;3324;50.796;7.228;2023-03-01T00:16:14;1.40;99.90
6581;DHT22;3324;50.796;7.228;2023-03-01T00:18:40;1.40;99.90
6581;DHT22;3324;50.796;7.228;2023-03-01T00:21:06;1.40;99.90
6581;DHT22;3324;50.796;7.228;2023-03-01T00:23:34;1.30;99.90
6581;DHT22;3324;50.796;7.228;2023-03-01T00:25:59;1.40;99.90
6581;DHT22;3324;50.796;7.228;2023-03-01T00:28:25;1.30;99.90
6581;DHT22;3324;50.796;7.228;2023-03-01T00:30:51;1.30;99.90
6581;DHT22;3324;50.796;7.228;2023-03-01T00:33:16;1.30;99.90
6581;DHT22;3324;50.796;7.228;2023-03-01T00:35:42;1.30;99.90
6581;DHT22;3324;50.796;7.228;2023-03-01T00:38:08;1.30;99.90
6581;DHT22;3324;50.796;7.228;2023-03-01T00:40:35;1.50;99.90
6581;DHT22;3324;50.796;7.228;2023-03-01T00:43:01;1.30;99.90
6581;DHT22;3324;50.796;7.228;2023-03-01T00:45:27;1.40;99.90
6581;DHT22;3324;50.796;7.228;2023-03-01T00:47:53;1.40;99.90
6581;DHT22;3324;50.796;7.228;2023-03-01T00:50:20;1.40;99.90
6581;DHT22;3324;50.796;7.228;2023-03-01T00:52:45;1.30;99.90
6581;DHT22;3324;50.796;7.228;2023-03-01T00:55:12;1.30;99.90
6581;DHT22;3324;50.796;7.228;2023-03-01T00:57:38;1.20;99.90
6581;DHT22;3324;50.796;7.228;2023-03-01T01:00:05;1.20;99.90
6581;DHT22;3324;50.796;7.228;2023-03-01T01:02:34;1.10;99.90
6581;DHT22;3324;50.796;7.228;2023-03-01T01:04:59;1.10;99.90
6581;DHT22;3324;50.796;7.228;2023-03-01T01:07:25;1.00;99.90
6581;DHT22;3324;50.796;7.228;2023-03-01T01:09:51;1.00;99.90
6581;DHT22;3324;50.796;7.228;2023-03-01T01:12:17;1.00;99.90
6581;DHT22;3324;50.796;7.228;2023-03-01T01:14:42;0.90;99.90
6581;DHT22;3324;50.796;7.228;2023-03-01T01:17:08;0.90;99.90
6581;DHT22;3324;50.796;7.228;2023-03-01T01:19:34;0.90;99.90
6581;DHT22;3324;50.796;7.228;2023-03-01T01:21:59;0.90;99.90
6581;DHT22;3324;50.796;7.228;2023-03-01T01:24:25;0.90;99.90
6581;DHT22;3324;50.796;7.228;2023-03-01T01:26:50;0.90;99.90
6581;DHT22;3324;50.796;7.228;2023-03-01T01:29:16;0.80;99.90
6581;DHT22;3324;50.796;7.228;2023-03-01T01:31:42;0.80;99.90
6581;DHT22;3324;50.796;7.228;2023-03-01T01:34:13;0.80;99.90
6581;DHT22;3324;50.796;7.228;2023-03-01T01:36:39;0.70;99.90
6581;DHT22;3324;50.796;7.228;2023-03-01T01:39:05;0.70;99.90
6581;DHT22;3324;50.796;7.228;2023-03-01T01:41:31;0.70;99.90
6581;DHT22;3324;50.796;7.228;2023-03-01T01:44:17;0.60;99.90
6581;DHT22;3324;50.796;7.228;2023-03-01T01:52:36;0.60;99.90
6581;DHT22;3324;50.796;7.228;2023-03-01T01:57:39;0.70;99.90
6581;DHT22;3324;50.796;7.228;2023-03-01T02:00:27;0.60;99.90
6581;DHT22;3324;50.796;7.228;2023-03-01T02:03:04;0.60;99.90
6581;DHT22;3324;50.796;7.228;2023-03-01T02:05:46;0.50;99.90
6581;DHT22;3324;50.796;7.228;2023-03-01T02:08:14;0.50;99.90
6581;DHT22;3324;50.796;7.228;2023-03-01T02:10:42;0.50;99.90
6581;DHT22;3324;50.796;7.228;2023-03-01T02:13:08;0.50;99.90
6581;DHT22;3324;50.796;7.228;2023-03-01T02:15:35;0.50;99.90
6581;DHT22;3324;50.796;7.228;2023-03-01T02:18:04;0.50;99.90
6581;DHT22;3324;50.796;7.228;2023-03-01T02:23:27;0.30;99.90
6581;DHT22;3324;50.796;7.228;2023-03-01T02:28:42;0.10;99.90
6581;DHT22;3324;50.796;7.228;2023-03-01T02:31:09;0.10;99.90
6581;DHT22;3324;50.796;7.228;2023-03-01T02:33:54;0.10;99.90
6581;DHT22;3324;50.796;7.228;2023-03-01T02:36:30;0.20;99.90
6581;DHT22;3324;50.796;7.228;2023-03-01T02:38:58;0.20;99.90
6581;DHT22;3324;50.796;7.228;2023-03-01T02:41:26;0.20;99.90
6581;DHT22;3324;50.796;7.228;2023-03-01T02:43:53;0.20;99.90
6581;DHT22;3324;50.796;7.228;2023-03-01T02:46:22;0.10;99.90
6581;DHT22;3324;50.796;7.228;2023-03-01T02:48:50;0.10;99.90
6581;DHT22;3324;50.796;7.228;2023-03-01T02:54:21;0.10;99.90
6581;DHT22;3324;50.796;7.228;2023-03-01T02:56:48;0.10;99.90
6581;DHT22;3324;50.796;7.228;2023-03-01T02:59:17;0.10;99.90
6581;DHT22;3324;50.796;7.228;2023-03-01T03:01:43;-0.10;99.90
6581;DHT22;3324;50.796;7.228;2023-03-01T03:04:13;-0.10;99.90
6581;DHT22;3324;50.796;7.228;2023-03-01T03:06:43;-0.10;99.90
6581;DHT22;3324;50.796;7.228;2023-03-01T03:09:10;-0.10;99.90
6581;DHT22;3324;50.796;7.228;2023-03-01T03:11:35;-0.20;99.90
6581;DHT22;3324;50.796;7.228;2023-03-01T03:14:02;-0.30;99.90
6581;DHT22;3324;50.796;7.228;2023-03-01T03:16:27;-0.50;99.90
6581;DHT22;3324;50.796;7.228;2023-03-01T03:18:55;-0.40;99.90
6581;DHT22;3324;50.796;7.228;2023-03-01T03:21:31;-0.40;99.90
6581;DHT22;3324;50.796;7.228;2023-03-01T03:23:57;-0.50;99.90
6581;DHT22;3324;50.796;7.228;2023-03-01T03:26:23;-0.50;99.90
6581;DHT22;3324;50.796;7.228;2023-03-01T03:28:48;-0.50;99.90
6581;DHT22;3324;50.796;7.228;2023-03-01T03:31:14;-0.50;99.90
6581;DHT22;3324;50.796;7.228;2023-03-01T03:33:39;-0.50;99.90
6581;DHT22;3324;50.796;7.228;2023-03-01T03:36:05;-0.50;99.90
6581;DHT22;3324;50.796;7.228;2023-03-01T03:38:31;-0.50;99.90
6581;DHT22;3324;50.796;7.228;2023-03-01T03:41:06;-0.50;99.90
6581;DHT22;3324;50.796;7.228;2023-03-01T03:43:34;-0.50;99.90
6581;DHT22;3324;50.796;7.228;2023-03-01T03:46:01;-0.50;99.90
6581;DHT22;3324;50.796;7.228;2023-03-01T03:48:35;-0.50;99.90
6581;DHT22;3324;50.796;7.228;2023-03-01T03:51:01;-0.50;99.90
6581;DHT22;3324;50.796;7.228;2023-03-01T03:53:28;-0.50;99.90
6581;DHT22;3324;50.796;7.228;2023-03-01T03:55:54;-0.50;99.90
6581;DHT22;3324;50.796;7.228;2023-03-01T03:58:21;-0.50;99.90
6581;DHT22;3324;50.796;7.228;2023-03-01T04:00:49;-0.50;99.90
6581;DHT22;3324;50.796;7.228;2023-03-01T04:03:16;-0.50;99.90
6581;DHT22;3324;50.796;7.228;2023-03-01T04:05:42;-0.40;99.90
6581;DHT22;3324;50.796;7.228;2023-03-01T04:08:09;-0.30;99.90
6581;DHT22;3324;50.796;7.228;2023-03-01T04:10:37;-0.40;99.90
6581;DHT22;3324;50.796;7.228;2023-03-01T04:13:08;-0.40;99.90
6581;DHT22;3324;50.796;7.228;2023-03-01T04:15:34;-0.50;99.90
6581;DHT22;3324;50.796;7.228;2023-03-01T04:18:00;-0.60;99.90
6581;DHT22;3324;50.796;7.228;2023-03-01T04:20:28;-0.60;99.90
6581;DHT22;3324;50.796;7.228;2023-03-01T04:23:08;-0.60;99.90
6581;DHT22;3324;50.796;7.228;2023-03-01T04:25:53;-0.70;99.90
6581;DHT22;3324;50.796;7.228;2023-03-01T04:30:52;-0.70;99.90
6581;DHT22;3324;50.796;7.228;2023-03-01T04:33:18;-0.70;99.90
6581;DHT22;3324;50.796;7.228;2023-03-01T04:35:44;-0.70;99.90
6581;DHT22;3324;50.796;7.228;2023-03-01T04:38:10;-0.60;99.90
6581;DHT22;3324;50.796;7.228;2023-03-01T04:40:36;-0.70;99.90
6581;DHT22;3324;50.796;7.228;2023-03-01T04:43:03;-0.70;99.90
6581;DHT22;3324;50.796;7.228;2023-03-01T04:45:28;-0.80;99.90
6581;DHT22;3324;50.796;7.228;2023-03-01T04:47:54;-0.80;99.90
6581;DHT22;3324;50.796;7.228;2023-03-01T04:50:20;-0.70;99.90
6581;DHT22;3324;50.796;7.228;2023-03-01T04:52:47;-0.60;99.90
6581;DHT22;3324;50.796;7.228;2023-03-01T04:55:13;-0.60;99.90
6581;DHT22;3324;50.796;7.228;2023-03-01T04:57:39;-0.40;99.90
6581;DHT22;3324;50.796;7.228;2023-03-01T05:00:07;-0.40;99.90
6581;DHT22;3324;50.796;7.228;2023-03-01T05:02:46;-0.40;99.90
6581;DHT22;3324;50.796;7.228;2023-03-01T05:05:13;-0.50;99.90
6581;DHT22;3324;50.796;7.228;2023-03-01T05:07:39;-0.60;99.90
6581;DHT22;3324;50.796;7.228;2023-03-01T05:10:05;-0.60;99.90
6581;DHT22;3324;50.796;7.228;2023-03-01T05:12:30;-0.70;99.90
6581;DHT22;3324;50.796;7.228;2023-03-01T05:14:56;-0.70;99.90
6581;DHT22;3324;50.796;7.228;2023-03-01T05:17:21;-0.70;99.90
6581;DHT22;3324;50.796;7.228;2023-03-01T05:19:47;-0.80;99.90
6581;DHT22;3324;50.796;7.228;2023-03-01T05:22:12;-0.70;99.90
6581;DHT22;3324;50.796;7.228;2023-03-01T05:24:38;-0.70;99.90
6581;DHT22;3324;50.796;7.228;2023-03-01T05:27:04;-0.70;99.90
6581;DHT22;3324;50.796;7.228;2023-03-01T05:29:31;-0.80;99.90
6581;DHT22;3324;50.796;7.228;2023-03-01T05:32:01;-0.70;99.90
6581;DHT22;3324;50.796;7.228;2023-03-01T05:34:35;-0.80;99.90
6581;DHT22;3324;50.796;7.228;2023-03-01T05:37:02;-0.90;99.90
6581;DHT22;3324;50.796;7.228;2023-03-01T05:39:29;-0.90;99.90
6581;DHT22;3324;50.796;7.228;2023-03-01T05:41:57;-0.90;99.90
6581;DHT22;3324;50.796;7.228;2023-03-01T05:44:23;-0.80;99.90
6581;DHT22;3324;50.796;7.228;2023-03-01T05:46:49;-0.80;99.90
6581;DHT22;3324;50.796;7.228;2023-03-01T05:49:15;-0.70;99.90
6581;DHT22;3324;50.796;7.228;2023-03-01T05:51:41;-0.80;99.90
6581;DHT22;3324;50.796;7.228;2023-03-01T05:54:08;-0.90;99.90
6581;DHT22;3324;50.796;7.228;2023-03-01T05:56:35;-0.90;99.90
6581;DHT22;3324;50.796;7.228;2023-03-01T05:59:02;-1.00;99.90
6581;DHT22;3324;50.796;7.228;2023-03-01T06:01:27;-1.00;99.90
6581;DHT22;3324;50.796;7.228;2023-03-01T06:03:53;-1.00;99.90
6581;DHT22;3324;50.796;7.228;2023-03-01T06:06:19;-1.10;99.90
6581;DHT22;3324;50.796;7.228;2023-03-01T06:08:44;-1.10;99.90
6581;DHT22;3324;50.796;7.228;2023-03-01T06:11:10;-1.10;99.90
6581;DHT22;3324;50.796;7.228;2023-03-01T06:13:35;-1.10;99.90
6581;DHT22;3324;50.796;7.228;2023-03-01T06:16:03;-1.10;99.90
6581;DHT22;3324;50.796;7.228;2023-03-01T06:18:29;-1.10;99.90
6581;DHT22;3324;50.796;7.228;2023-03-01T06:20:55;-1.10;99.90
6581;DHT22;3324;50.796;7.228;2023-03-01T06:23:21;-1.00;99.90
6581;DHT22;3324;50.796;7.228;2023-03-01T06:25:47;-1.10;99.90
6581;DHT22;3324;50.796;7.228;2023-03-01T06:28:13;-1.20;99.90
6581;DHT22;3324;50.796;7.228;2023-03-01T06:30:38;-1.20;99.90
6581;DHT22;3324;50.796;7.228;2023-03-01T06:33:04;-1.20;99.90
6581;DHT22;3324;50.796;7.228;2023-03-01T06:35:29;-1.20;99.90
6581;DHT22;3324;50.796;7.228;2023-03-01T06:37:55;-1.20;99.90
6581;DHT22;3324;50.796;7.228;2023-03-01T06:40:20;-1.10;99.90
6581;DHT22;3324;50.796;7.228;2023-03-01T06:42:50;-1.20;99.90
6581;DHT22;3324;50.796;7.228;2023-03-01T06:45:16;-1.20;99.90
6581;DHT22;3324;50.796;7.228;2023-03-01T06:47:41;-1.20;99.90
6581;DHT22;3324;50.796;7.228;2023-03-01T06:50:07;-1.20;99.90
6581;DHT22;3324;50.796;7.228;2023-03-01T06:52:32;-1.20;99.90
6581;DHT22;3324;50.796;7.228;2023-03-01T06:54:58;-1.10;99.90
6581;DHT22;3324;50.796;7.228;2023-03-01T06:57:24;-1.10;99.90
6581;DHT22;3324;50.796;7.228;2023-03-01T06:59:49;-1.00;99.90
6581;DHT22;3324;50.796;7.228;2023-03-01T07:02:15;-1.10;99.90
6581;DHT22;3324;50.796;7.228;2023-03-01T07:04:41;-1.00;99.90
6581;DHT22;3324;50.796;7.228;2023-03-01T07:07:06;-0.90;99.90
6581;DHT22;3324;50.796;7.228;2023-03-01T07:09:32;-1.00;99.90
6581;DHT22;3324;50.796;7.228;2023-03-01T07:11:57;-1.00;99.90
6581;DHT22;3324;50.796;7.228;2023-03-01T07:14:23;-1.10;99.90
6581;DHT22;3324;50.796;7.228;2023-03-01T07:16:52;-1.00;99.90
6581;DHT22;3324;50.796;7.228;2023-03-01T07:19:17;-1.00;99.90
6581;DHT22;3324;50.796;7.228;2023-03-01T07:21:43;-0.90;99.90
6581;DHT22;3324;50.796;7.228;2023-03-01T07:24:09;-0.90;99.90
6581;DHT22;3324;50.796;7.228;2023-03-01T07:26:34;-0.80;99.90
6581;DHT22;3324;50.796;7.228;2023-03-01T07:29:00;-0.80;99.90
6581;DHT22;3324;50.796;7.228;2023-03-01T07:31:26;-0.80;99.90
6581;DHT22;3324;50.796;7.228;2023-03-01T07:33:53;-0.70;99.90
6581;DHT22;3324;50.796;7.228;2023-03-01T07:36:19;-0.60;99.90
6581;DHT22;3324;50.796;7.228;2023-03-01T07:38:44;-0.60;99.90
6581;DHT22;3324;50.796;7.228;2023-03-01T07:41:10;-0.60;99.90
6581;DHT22;3324;50.796;7.228;2023-03-01T07:43:35;-0.60;99.90
6581;DHT22;3324;50.796;7.228;2023-03-01T07:46:01;-0.50;99.90
6581;DHT22;3324;50.796;7.228;2023-03-01T07:48:26;-0.40;99.90
6581;DHT22;3324;50.796;7.228;2023-03-01T07:50:52;-0.40;99.90
6581;DHT22;3324;50.796;7.228;2023-03-01T07:53:18;-0.40;99.90
6581;DHT22;3324;50.796;7.228;2023-03-01T07:55:43;-0.30;99.90
6581;DHT22;3324;50.796;7.228;2023-03-01T07:58:09;-0.30;99.90
6581;DHT22;3324;50.796;7.228;2023-03-01T08:00:34;-0.20;99.90
6581;DHT22;3324;50.796;7.228;2023-03-01T08:03:01;-0.20;99.90
6581;DHT22;3324;50.796;7.228;2023-03-01T08:05:27;-0.10;99.90
6581;DHT22;3324;50.796;7.228;2023-03-01T08:07:53;0.00;99.90
6581;DHT22;3324;50.796;7.228;2023-03-01T08:10:19;0.10;99.90
6581;DHT22;3324;50.796;7.228;2023-03-01T08:12:44;0.10;99.90
6581;DHT22;3324;50.796;7.228;2023-03-01T08:15:12;0.10;99.90
6581;DHT22;3324;50.796;7.228;2023-03-01T08:17:37;0.10;99.90
6581;DHT22;3324;50.796;7.228;2023-03-01T08:20:03;0.20;99.90
6581;DHT22;3324;50.796;7.228;2023-03-01T08:22:31;0.10;99.90
6581;DHT22;3324;50.796;7.228;2023-03-01T08:24:56;0.10;99.90
6581;DHT22;3324;50.796;7.228;2023-03-01T08:27:22;0.20;99.90
6581;DHT22;3324;50.796;7.228;2023-03-01T08:29:47;0.30;99.90
6581;DHT22;3324;50.796;7.228;2023-03-01T08:32:13;0.40;99.90
6581;DHT22;3324;50.796;7.228;2023-03-01T08:34:39;0.50;99.90
6581;DHT22;3324;50.796;7.228;2023-03-01T08:37:04;0.60;99.90
6581;DHT22;3324;50.796;7.228;2023-03-01T08:39:30;0.70;99.90
6581;DHT22;3324;50.796;7.228;2023-03-01T08:41:55;0.80;99.90
6581;DHT22;3324;50.796;7.228;2023-03-01T08:44:22;1.00;99.90
6581;DHT22;3324;50.796;7.228;2023-03-01T08:46:47;1.00;99.90
6581;DHT22;3324;50.796;7.228;2023-03-01T08:49:17;1.10;99.90
6581;DHT22;3324;50.796;7.228;2023-03-01T08:51:44;1.20;99.90
6581;DHT22;3324;50.796;7.228;2023-03-01T08:54:10;1.30;99.90
6581;DHT22;3324;50.796;7.228;2023-03-01T08:56:36;1.40;99.90
6581;DHT22;3324;50.796;7.228;2023-03-01T08:59:02;1.50;99.90
6581;DHT22;3324;50.796;7.228;2023-03-01T09:01:29;1.60;99.90
6581;DHT22;3324;50.796;7.228;2023-03-01T09:03:54;1.70;99.90
6581;DHT22;3324;50.796;7.228;2023-03-01T09:06:20;1.80;99.90
6581;DHT22;3324;50.796;7.228;2023-03-01T09:08:48;1.90;99.90
6581;DHT22;3324;50.796;7.228;2023-03-01T09:11:20;2.00;99.90
6581;DHT22;3324;50.796;7.228;2023-03-01T09:13:47;2.10;99.90
6581;DHT22;3324;50.796;7.228;2023-03-01T09:16:15;2.30;99.90
6581;DHT22;3324;50.796;7.228;2023-03-01T09:18:42;2.40;99.90
6581;DHT22;3324;50.796;7.228;2023-03-01T09:21:10;2.50;99.90
6581;DHT22;3324;50.796;7.228;2023-03-01T09:23:41;2.60;99.90
6581;DHT22;3324;50.796;7.228;2023-03-01T09:26:09;2.70;99.90
6581;DHT22;3324;50.796;7.228;2023-03-01T09:28:35;2.80;99.90
6581;DHT22;3324;50.796;7.228;2023-03-01T09:31:02;2.90;99.90
6581;DHT22;3324;50.796;7.228;2023-03-01T09:33:29;3.00;99.90
6581;DHT22;3324;50.796;7.228;2023-03-01T09:36:02;3.20;99.90
6581;DHT22;3324;50.796;7.228;2023-03-01T09:38:28;3.20;99.90
6581;DHT22;3324;50.796;7.228;2023-03-01T09:40:54;3.30;99.90
6581;DHT22;3324;50.796;7.228;2023-03-01T09:43:29;3.40;99.90
6581;DHT22;3324;50.796;7.228;2023-03-01T09:46:00;4.10;99.90
6581;DHT22;3324;50.796;7.228;2023-03-01T09:48:42;5.20;99.90
6581;DHT22;3324;50.796;7.228;2023-03-01T09:51:15;5.50;99.90
6581;DHT22;3324;50.796;7.228;2023-03-01T09:53:43;5.90;99.90
6581;DHT22;3324;50.796;7.228;2023-03-01T09:59:22;5.40;99.90
6581;DHT22;3324;50.796;7.228;2023-03-01T10:02:14;5.30;99.90
6581;DHT22;3324;50.796;7.228;2023-03-01T10:05:10;5.10;99.90
6581;DHT22;3324;50.796;7.228;2023-03-01T10:07:43;5.10;99.90
6581;DHT22;3324;50.796;7.228;2023-03-01T10:10:27;5.00;99.90
6581;DHT22;3324;50.796;7.228;2023-03-01T10:12:54;5.00;99.90
6581;DHT22;3324;50.796;7.228;2023-03-01T10:15:37;5.00;99.90
6581;DHT22;3324;50.796;7.228;2023-03-01T10:18:09;5.10;99.90
6581;DHT22;3324;50.796;7.228;2023-03-01T10:21:02;5.10;99.90
6581;DHT22;3324;50.796;7.228;2023-03-01T10:23:34;5.30;99.90
6581;DHT22;3324;50.796;7.228;2023-03-01T10:29:11;5.40;99.90
6581;DHT22;3324;50.796;7.228;2023-03-01T10:31:49;5.50;99.90
6581;DHT22;3324;50.796;7.228;2023-03-01T10:36:44;5.60;99.90
6581;DHT22;3324;50.796;7.228;2023-03-01T10:39:18;5.70;99.90
6581;DHT22;3324;50.796;7.228;2023-03-01T10:41:57;5.70;99.90
6581;DHT22;3324;50.796;7.228;2023-03-01T10:44:44;5.80;99.90
6581;DHT22;3324;50.796;7.228;2023-03-01T10:47:15;6.00;99.90
6581;DHT22;3324;50.796;7.228;2023-03-01T10:50:02;6.00;99.90
6581;DHT22;3324;50.796;7.228;2023-03-01T10:52:35;6.10;99.90
6581;DHT22;3324;50.796;7.228;2023-03-01T11:24:51;6.90;99.90
6581;DHT22;3324;50.796;7.228;2023-03-01T11:27:35;7.10;99.90
6581;DHT22;3324;50.796;7.228;2023-03-01T11:32:35;7.30;99.90
6581;DHT22;3324;50.796;7.228;2023-03-01T11:35:25;7.40;99.90
6581;DHT22;3324;50.796;7.228;2023-03-01T11:38:16;7.60;99.40
6581;DHT22;3324;50.796;7.228;2023-03-01T11:40:49;7.60;99.60
6581;DHT22;3324;50.796;7.228;2023-03-01T11:43:37;7.70;99.50
6581;DHT22;3324;50.796;7.228;2023-03-01T11:46:35;7.70;98.00
6581;DHT22;3324;50.796;7.228;2023-03-01T11:49:26;7.90;98.20
6581;DHT22;3324;50.796;7.228;2023-03-01T11:52:02;7.80;97.30
6581;DHT22;3324;50.796;7.228;2023-03-01T12:06:12;8.20;95.20
6581;DHT22;3324;50.796;7.228;2023-03-01T12:08:47;8.20;95.50
6581;DHT22;3324;50.796;7.228;2023-03-01T12:22:37;8.70;93.80
6581;DHT22;3324;50.796;7.228;2023-03-01T12:25:32;8.70;92.70
6581;DHT22;3324;50.796;7.228;2023-03-01T12:28:24;8.70;92.50
6581;DHT22;3324;50.796;7.228;2023-03-01T12:33:51;8.60;92.70
6581;DHT22;3324;50.796;7.228;2023-03-01T12:49:46;9.00;91.60
6581;DHT22;3324;50.796;7.228;2023-03-01T12:54:45;9.20;90.70
6581;DHT22;3324;50.796;7.228;2023-03-01T12:57:29;9.20;89.70
6581;DHT22;3324;50.796;7.228;2023-03-01T13:00:27;9.10;90.20
6581;DHT22;3324;50.796;7.228;2023-03-01T13:08:41;9.20;88.90
6581;DHT22;3324;50.796;7.228;2023-03-01T13:11:19;9.20;86.80
6581;DHT22;3324;50.796;7.228;2023-03-01T13:13:46;9.20;85.90
6581;DHT22;3324;50.796;7.228;2023-03-01T13:16:40;9.20;84.50
6581;DHT22;3324;50.796;7.228;2023-03-01T13:19:10;9.30;85.60
6581;DHT22;3324;50.796;7.228;2023-03-01T13:21:37;9.50;87.10
6581;DHT22;3324;50.796;7.228;2023-03-01T13:24:03;9.60;85.50
6581;DHT22;3324;50.796;7.228;2023-03-01T13:26:28;9.70;84.90
6581;DHT22;3324;50.796;7.228;2023-03-01T13:28:58;9.80;84.70
6581;DHT22;3324;50.796;7.228;2023-03-01T13:33:52;10.00;79.40
6581;DHT22;3324;50.796;7.228;2023-03-01T13:39:30;9.90;76.40
6581;DHT22;3324;50.796;7.228;2023-03-01T13:41:58;9.90;75.50
6581;DHT22;3324;50.796;7.228;2023-03-01T13:44:37;9.90;74.50
6581;DHT22;3324;50.796;7.228;2023-03-01T13:49:58;10.10;72.30
6581;DHT22;3324;50.796;7.228;2023-03-01T13:52:44;10.10;70.90
6581;DHT22;3324;50.796;7.228;2023-03-01T13:57:43;10.10;69.50
6581;DHT22;3324;50.796;7.228;2023-03-01T14:00:37;10.10;69.20
6581;DHT22;3324;50.796;7.228;2023-03-01T14:03:16;10.10;69.40
6581;DHT22;3324;50.796;7.228;2023-03-01T14:05:44;10.10;69.60
6581;DHT22;3324;50.796;7.228;2023-03-01T14:08:25;10.20;68.90
6581;DHT22;3324;50.796;7.228;2023-03-01T14:16:42;10.90;82.40
6581;DHT22;3324;50.796;7.228;2023-03-01T14:19:27;11.40;78.70
6581;DHT22;3324;50.796;7.228;2023-03-01T14:22:22;11.80;71.40
6581;DHT22;3324;50.796;7.228;2023-03-01T14:24:51;11.90;70.80
6581;DHT22;3324;50.796;7.228;2023-03-01T14:27:18;12.20;75.20
6581;DHT22;3324;50.796;7.228;2023-03-01T14:29:44;12.30;73.00
6581;DHT22;3324;50.796;7.228;2023-03-01T14:32:21;12.40;79.70
6581;DHT22;3324;50.796;7.228;2023-03-01T14:34:49;12.20;71.40
6581;DHT22;3324;50.796;7.228;2023-03-01T14:37:34;12.10;69.90
6581;DHT22;3324;50.796;7.228;2023-03-01T14:40:03;11.90;79.20
6581;DHT22;3324;50.796;7.228;2023-03-01T14:42:35;12.20;88.40
6581;DHT22;3324;50.796;7.228;2023-03-01T14:45:02;12.20;71.20
6581;DHT22;3324;50.796;7.228;2023-03-01T14:47:31;12.30;78.50
6581;DHT22;3324;50.796;7.228;2023-03-01T14:50:00;12.40;81.70
6581;DHT22;3324;50.796;7.228;2023-03-01T14:52:37;12.40;72.60
6581;DHT22;3324;50.796;7.228;2023-03-01T14:55:09;12.40;77.30
6581;DHT22;3324;50.796;7.228;2023-03-01T14:57:43;12.50;77.40
6581;DHT22;3324;50.796;7.228;2023-03-01T15:00:19;12.40;72.10
6581;DHT22;3324;50.796;7.228;2023-03-01T15:02:48;12.40;69.70
6581;DHT22;3324;50.796;7.228;2023-03-01T15:05:14;12.30;73.80
6581;DHT22;3324;50.796;7.228;2023-03-01T15:07:42;12.40;73.90
6581;DHT22;3324;50.796;7.228;2023-03-01T15:10:25;12.30;69.40
6581;DHT22;3324;50.796;7.228;2023-03-01T15:12:51;12.20;66.40
6581;DHT22;3324;50.796;7.228;2023-03-01T15:15:33;12.10;70.00
6581;DHT22;3324;50.796;7.228;2023-03-01T15:18:06;11.80;67.10
6581;DHT22;3324;50.796;7.228;2023-03-01T15:20:33;11.70;66.10
6581;DHT22;3324;50.796;7.228;2023-03-01T15:23:01;11.60;65.70
6581;DHT22;3324;50.796;7.228;2023-03-01T15:25:29;11.60;71.70
6581;DHT22;3324;50.796;7.228;2023-03-01T15:27:57;11.60;70.20
6581;DHT22;3324;50.796;7.228;2023-03-01T15:30:34;11.50;64.80
6581;DHT22;3324;50.796;7.228;2023-03-01T15:33:32;11.30;63.70
6581;DHT22;3324;50.796;7.228;2023-03-01T15:36:04;11.20;68.80
6581;DHT22;3324;50.796;7.228;2023-03-01T15:38:53;11.10;65.00
6581;DHT22;3324;50.796;7.228;2023-03-01T15:43:53;11.20;68.00
6581;DHT22;3324;50.796;7.228;2023-03-01T15:48:53;11.20;66.50
6581;DHT22;3324;50.796;7.228;2023-03-01T15:53:55;11.40;66.10
6581;DHT22;3324;50.796;7.228;2023-03-01T15:56:21;11.40;71.20
6581;DHT22;3324;50.796;7.228;2023-03-01T15:58:47;11.50;74.60
6581;DHT22;3324;50.796;7.228;2023-03-01T16:01:14;11.70;78.60
6581;DHT22;3324;50.796;7.228;2023-03-01T16:03:43;12.10;82.20
6581;DHT22;3324;50.796;7.228;2023-03-01T16:06:10;12.30;77.30
6581;DHT22;3324;50.796;7.228;2023-03-01T16:08:37;12.20;75.40
6581;DHT22;3324;50.796;7.228;2023-03-01T16:11:09;12.10;76.20
6581;DHT22;3324;50.796;7.228;2023-03-01T16:13:36;11.80;73.40
6581;DHT22;3324;50.796;7.228;2023-03-01T16:16:02;11.60;76.40
6581;DHT22;3324;50.796;7.228;2023-03-01T16:18:28;11.50;80.10
6581;DHT22;3324;50.796;7.228;2023-03-01T16:20:53;11.70;79.80
6581;DHT22;3324;50.796;7.228;2023-03-01T16:23:19;11.50;75.50
6581;DHT22;3324;50.796;7.228;2023-03-01T16:25:46;11.30;76.40
6581;DHT22;3324;50.796;7.228;2023-03-01T16:28:12;11.30;74.30
6581;DHT22;3324;50.796;7.228;2023-03-01T16:30:38;11.10;75.60
6581;DHT22;3324;50.796;7.228;2023-03-01T16:33:05;10.70;73.10
6581;DHT22;3324;50.796;7.228;2023-03-01T16:35:33;10.40;73.10
6581;DHT22;3324;50.796;7.228;2023-03-01T16:38:02;10.10;74.80
6581;DHT22;3324;50.796;7.228;2023-03-01T16:40:38;9.90;76.80
6581;DHT22;3324;50.796;7.228;2023-03-01T16:43:03;9.70;78.80
6581;DHT22;3324;50.796;7.228;2023-03-01T16:45:34;9.60;80.60
6581;DHT22;3324;50.796;7.228;2023-03-01T16:48:01;9.40;82.50
6581;DHT22;3324;50.796;7.228;2023-03-01T16:50:26;9.40;83.10
6581;DHT22;3324;50.796;7.228;2023-03-01T16:52:52;9.20;84.00
6581;DHT22;3324;50.796;7.228;2023-03-01T16:55:18;9.00;84.70
6581;DHT22;3324;50.796;7.228;2023-03-01T16:57:43;8.90;85.50
6581;DHT22;3324;50.796;7.228;2023-03-01T17:00:12;8.80;86.60
6581;DHT22;3324;50.796;7.228;2023-03-01T17:02:38;8.70;86.40
6581;DHT22;3324;50.796;7.228;2023-03-01T17:05:04;8.70;87.10
6581;DHT22;3324;50.796;7.228;2023-03-01T17:07:31;8.60;87.40
6581;DHT22;3324;50.796;7.228;2023-03-01T17:09:59;8.50;87.80
6581;DHT22;3324;50.796;7.228;2023-03-01T17:12:25;8.30;88.40
6581;DHT22;3324;50.796;7.228;2023-03-01T17:14:50;8.20;88.30
6581;DHT22;3324;50.796;7.228;2023-03-01T17:17:16;8.20;87.50
6581;DHT22;3324;50.796;7.228;2023-03-01T17:19:41;8.20;86.00
6581;DHT22;3324;50.796;7.228;2023-03-01T17:22:09;8.20;84.20
6581;DHT22;3324;50.796;7.228;2023-03-01T17:24:37;8.10;85.10
6581;DHT22;3324;50.796;7.228;2023-03-01T17:27:04;8.00;85.90
6581;DHT22;3324;50.796;7.228;2023-03-01T17:29:32;8.00;85.40
6581;DHT22;3324;50.796;7.228;2023-03-01T17:31:57;8.00;84.80
6581;DHT22;3324;50.796;7.228;2023-03-01T17:34:24;7.90;83.80
6581;DHT22;3324;50.796;7.228;2023-03-01T17:36:50;7.80;83.90
6581;DHT22;3324;50.796;7.228;2023-03-01T17:39:17;7.80;83.80
6581;DHT22;3324;50.796;7.228;2023-03-01T17:41:45;7.80;83.80
6581;DHT22;3324;50.796;7.228;2023-03-01T17:44:11;7.70;84.30
6581;DHT22;3324;50.796;7.228;2023-03-01T17:46:36;7.60;85.60
6581;DHT22;3324;50.796;7.228;2023-03-01T17:49:02;7.50;85.80
6581;DHT22;3324;50.796;7.228;2023-03-01T17:51:28;7.40;86.60
6581;DHT22;3324;50.796;7.228;2023-03-01T17:53:54;7.80;99.90
6581;DHT22;3324;50.796;7.228;2023-03-01T17:56:19;8.30;99.90
6581;DHT22;3324;50.796;7.228;2023-03-01T17:58:45;8.70;99.90
6581;DHT22;3324;50.796;7.228;2023-03-01T18:01:16;9.10;99.90
6581;DHT22;3324;50.796;7.228;2023-03-01T18:03:42;9.50;99.90
6581;DHT22;3324;50.796;7.228;2023-03-01T18:06:19;9.70;99.90
6581;DHT22;3324;50.796;7.228;2023-03-01T18:08:46;9.80;99.90
6581;DHT22;3324;50.796;7.228;2023-03-01T18:11:12;9.90;99.90
6581;DHT22;3324;50.796;7.228;2023-03-01T18:13:38;9.90;97.80
6581;DHT22;3324;50.796;7.228;2023-03-01T18:16:07;9.60;92.60
6581;DHT22;3324;50.796;7.228;2023-03-01T18:18:33;9.10;91.70
6581;DHT22;3324;50.796;7.228;2023-03-01T18:21:00;8.80;93.30
6581;DHT22;3324;50.796;7.228;2023-03-01T18:23:27;8.60;94.60
6581;DHT22;3324;50.796;7.228;2023-03-01T18:26:10;8.30;95.60
6581;DHT22;3324;50.796;7.228;2023-03-01T18:28:36;8.00;92.90
6581;DHT22;3324;50.796;7.228;2023-03-01T18:31:06;7.80;94.10
6581;DHT22;3324;50.796;7.228;2023-03-01T18:33:39;7.60;93.40
6581;DHT22;3324;50.796;7.228;2023-03-01T18:36:12;7.40;93.60